Foster, Missouri
Current Conditions -  °F | °C
As of 4:55 AM on Sunday 23 Nov 2014 (Local Time) from KGLY Reporting Station
Haze Haze  
Wind Chill: 55°   Ceiling: 1300
Heat Index: 55°   Visibility: 4mi
Dew Point: 54°   Wind: 9mph
Humidity: 94%   Direction: 150°SSE
Pressure: 29.6"   Gusts: NA
Location:  38.17°N, 94.51°W
Report Text: KGLY 231055Z AUTO 15008KT 4SM BR BKN013 BKN024 OVC044 13/12 A2960 RMK AO2
Loading
Personal Weather Stations






























Interactive Weather Map New forecast layout! Learn more

10-Day Weather Forecast

Advertisements
Track Severe Weather on mobile